Delta Virtual Airport Information Service

Atlanta Hartsfield-Jackson International Airport

ICAO: KATL Country: United States
Latitude: 33.6367 Longitude: -84.428
Latest Arrival : DAC1425 (KMIA-KATL) Latest Departure : EDV4802 (2A) (KATL-KCAE)


WX CaptureLIVE
Data provided by noaa.gov | Fetched at 23:12:28

METAR : KATL 250352Z 07007KT 10SM SCT047 BKN055 BKN250 23/17 A3008 RMK AO2 SLP173 T02280172

TAF : KATL 250349Z 2504/2606 09005KT P6SM FEW050 BKN120 FM250800 10005KT P6SM SCT020 BKN200 FM251500 10007KT P6SM SCT035 FM251800 10010KT P6SM VCSH BKN050 PROB30 2519/2601 4SM TSRA BKN035CB FM260500 09007KT P6SM VCSH BKN030


Runway Data for KATL
Data provided by openaviationdata.com

Runway ID Mag Var Hdg Length Elevation Surface ILS Freq ILS Id ILS Slope
08L -3 93° 8990 ft 1026 ft Concrete 109.3 IHFW 3
08R -3 93° 9989 ft 1026 ft Concrete 109.9 IATL 3
09L -3 93° 11876 ft 1026 ft Concrete 110.5 IHZK 3
09R -3 93° 8990 ft 1026 ft Concrete 108.9 IFUN 3
26L -3 273° 9989 ft 1026 ft Concrete 108.7 IBRU 3
26R -3 273° 8990 ft 1026 ft Concrete 110.1 IGXZ 3
27L -3 273° 8990 ft 1026 ft Concrete 108.5 IFSQ 3
27R -3 273° 11876 ft 1026 ft Concrete 111.3 IAFA 3

Atlanta Hartsfield-Jackson International Airport, United States
Use only for reference purposes



Not for navigational purposes.